메인 페이지
METAR-TAF:

METAR-TAF

공항 :

케이프타운, 남아프리카공화국

케이프타운 국제공항

위도: 33-59S, 경도: 018-36E, 고도: 42m

현재 날씨관측

예보는 36분 전, 09:00시(UTC)에 발표되었습니다.
남서11kt
온도 27°C
습도 54%
기압 1011 hPa
시정 10km 이상
1500m 미만 상공 구름 및 적란운 없음

METAR: FACT 180900Z 23011KT CAVOK 27/17 Q1011 NOSIG

시각: 11:36 (09:36 UTC)

예보

예보는 5 시간 36분 전, 04:00시(UTC)에 발표되었습니다.
예보 대상 시간: 18일 06시부터 19일 12시까지 (UTC)
남서8kt
시정 10km 이상
1500m 미만 상공 구름 및 적란운 없음
전환 중
18일 10시부터 18일 12시까지 (UTC)
18kt
일시적
18일 14시부터 18일 19시까지 (UTC)
18kt, 순간 최대 풍속 30kt
18일 2000시부터 (UTC)
16kt
시정 10km 이상
고도 1600ft 상공 구름 보통
확률 30% :
일시적
18일 22시부터 19일 07시까지 (UTC)
고도 900ft 상공 구름 많음
19일 0900시부터 (UTC)
20kt
시정 10km 이상
고도 3000ft 상공 구름 보통

TAF: FACT 180400Z 1806/1912 22008KT CAVOK BECMG 1810/1812 19018KT TEMPO 1814/1819 18018G30KT FM182000 18016KT 9999 SCT016 PROB30 TEMPO 1822/1907 BKN009 FM190900 18020KT 9999 SCT030 TX28/1912Z TN20/1904Z

4,000개 이상의 공항 관측 자료 및 예보 (METAR 및 TAF 보고).

지도상에서 검색 가능한 기상관측소가 노란 점과 빨간 점으로 표시되어 있습니다.

기상관측소 명을 보려면 표시 위로 마우스를 이동하세요.

날씨 관측과 예보를 보려면 클릭하세요.

지도 변경 : 확대하려면 엑스 표시가 있는 녹색 버튼, 축소하려면 빼기 표시가 있는 녹색 버튼, 다음 페이지의 지도를 보려면 녹색 화살표를 클릭하세요.


METAR-TAF: